• Join FlightAware (Why Join?)
  • Login
  • US Flag 
Rudolph Flight #1: Scheduled 
10:26PM EST


 

Airport Tracker/Info


-or-


 

Live Flight TrackerFlight Track Log ✈ N85TB ✈ 08-Jul-2013 ✈ S39 - KHIO

Flight Track Log - Related Links

Times and Time Zones

All times are in EDT time to prevent confusion due to time zone crossing. See the N85TB flight status page for this flight to view local times or setup timezone preferences in your user account.

Time Position Orientation Groundspeed Altitude Reporting Facility
EDT Latitude Longitude Course Direction KTS MPH feet Rate Location/Type
12:23AM 44.2875 -121.0017 270° West 142 163 6,100  Level Seattle Center
12:24AM 44.2825 -121.0567 263° West 143 165 7,800 1,440 Climbing Seattle Center
12:25AM 44.2747 -121.1094 258° West 140 161 9,100 1,380 Climbing Seattle Center
12:26AM 44.2742 -121.1589 269° West 133 153 10,600 1,500 Climbing Seattle Center
12:27AM 44.2706 -121.2181 265° West 130 150 12,200 1,260 Climbing Seattle Center
12:28AM 44.2917 -121.2639 303° West 155 178 13,200 840 Climbing Seattle Center
12:29AM 44.2500 -121.3022 270° West  Level FlightAware Approximate
12:29AM 44.3222 -121.3039 317° Northwest 151 174 14,000  Level Seattle Center
12:30AM 44.3600 -121.3544 316° Northwest 180 207 14,000  Level Seattle Center
12:31AM 44.4006 -121.4053 318° Northwest 192 221 14,000  Level Seattle Center
12:33AM 44.4397 -121.4594 315° West 197 227 14,000  Level Seattle Center
12:34AM 44.4806 -121.5111 318° Northwest 198 228 14,000  Level Seattle Center
12:35AM 44.5208 -121.5628 318° Northwest 198 228 14,000  Level Seattle Center
12:36AM 44.5606 -121.6150 317° Northwest 197 227 14,000  Level Seattle Center
12:37AM 44.6003 -121.6692 316° Northwest 198 228 14,000  Level Seattle Center
12:38AM 44.6411 -121.7203 318° Northwest 197 227 14,000  Level Seattle Center
12:39AM 44.6803 -121.7747 315° West 197 227 14,000  Level Seattle Center
12:40AM 44.7200 -121.8267 317° Northwest 196 226 14,000  Level Seattle Center
12:41AM 44.7583 -121.8811 315° West 196 226 14,000  Level Seattle Center
12:42AM 44.8008 -121.9350 318° Northwest 200 230 14,000  Level Seattle Center
12:43AM 44.8411 -121.9908 316° Northwest 201 231 14,000 -540 Level Seattle Center
12:44AM 44.8856 -122.0494 317° Northwest 210 242 13,000 -1,080 Descending Seattle Center
12:45AM 44.9364 -122.1189 316° Northwest 234 269 11,900 -1,260 Descending Seattle Center
12:46AM 44.9819 -122.1825 315° West 237 273 10,600 -1,320 Descending Seattle Center